createdAt,value
2018-09-30T00:00:25.022Z,8.50
2018-09-30T00:01:24.872Z,8.46
2018-09-30T00:02:24.850Z,8.44
2018-09-30T00:03:24.832Z,8.44
2018-09-30T00:04:24.811Z,8.42
2018-09-30T00:05:24.786Z,8.45
2018-09-30T00:06:24.767Z,8.44
2018-09-30T00:07:24.752Z,8.44
2018-09-30T00:08:24.763Z,8.31
2018-09-30T00:09:24.715Z,8.45
2018-09-30T00:10:24.688Z,8.52
2018-09-30T00:11:24.717Z,8.44
2018-09-30T00:12:24.638Z,8.50
2018-09-30T00:13:24.623Z,8.49
2018-09-30T00:14:24.593Z,8.52
2018-09-30T00:15:24.572Z,8.50
2018-09-30T00:16:24.549Z,8.44
2018-09-30T00:17:24.533Z,8.46
2018-09-30T00:18:24.508Z,8.52
2018-09-30T00:19:24.544Z,8.46
2018-09-30T00:20:24.468Z,8.52
2018-09-30T00:21:24.441Z,8.46
2018-09-30T00:22:24.421Z,8.42
2018-09-30T00:23:24.402Z,8.49
2018-09-30T00:24:24.385Z,8.52
2018-09-30T00:25:24.357Z,8.52
2018-09-30T00:26:24.335Z,8.57
2018-09-30T00:27:24.325Z,8.45
2018-09-30T00:28:24.297Z,8.52
2018-09-30T00:29:24.268Z,8.57
2018-09-30T00:30:24.255Z,8.45
2018-09-30T00:31:24.230Z,8.57
2018-09-30T00:32:24.213Z,8.60
2018-09-30T00:33:24.190Z,8.68
2018-09-30T00:34:24.170Z,8.63
2018-09-30T00:35:24.140Z,8.63
2018-09-30T00:36:24.262Z,8.72
2018-09-30T00:37:24.108Z,8.71
2018-09-30T00:38:24.074Z,8.59
2018-09-30T00:39:24.060Z,8.57
2018-09-30T00:40:24.033Z,8.53
2018-09-30T00:41:24.012Z,8.46
2018-09-30T00:42:23.991Z,8.45
2018-09-30T00:43:23.978Z,8.46
2018-09-30T00:44:23.954Z,8.35
2018-09-30T00:45:23.929Z,8.34
2018-09-30T00:46:23.917Z,8.35
2018-09-30T00:47:23.884Z,8.27
2018-09-30T00:48:23.864Z,8.31
2018-09-30T00:49:23.839Z,8.26
2018-09-30T00:50:23.819Z,8.21
2018-09-30T00:51:23.804Z,8.18
2018-09-30T00:52:23.811Z,8.06
2018-09-30T00:53:23.751Z,8.14
2018-09-30T00:54:23.731Z,8.13
2018-09-30T00:55:23.711Z,8.13
2018-09-30T00:56:23.692Z,8.11
2018-09-30T00:57:23.680Z,8.08
2018-09-30T00:58:23.642Z,8.24
2018-09-30T00:59:23.625Z,8.08
2018-09-30T01:00:23.602Z,8.18
2018-09-30T01:01:23.578Z,8.09
2018-09-30T01:02:23.557Z,8.09
2018-09-30T01:03:23.561Z,8.23
2018-09-30T01:04:23.514Z,8.20
2018-09-30T01:05:23.490Z,8.18
2018-09-30T01:06:23.548Z,8.17
2018-09-30T01:07:23.446Z,8.23
2018-09-30T01:08:23.427Z,8.18
2018-09-30T01:09:23.407Z,8.26
2018-09-30T01:10:23.382Z,8.18
2018-09-30T01:11:23.371Z,8.21
2018-09-30T01:12:23.340Z,8.20
2018-09-30T01:13:23.315Z,8.18
2018-09-30T01:14:23.296Z,8.17
2018-09-30T01:15:23.289Z,8.20
2018-09-30T01:16:23.253Z,8.17
2018-09-30T01:17:23.232Z,8.09
2018-09-30T01:18:23.224Z,8.24
2018-09-30T01:19:23.187Z,8.23
2018-09-30T01:20:23.170Z,8.20
2018-09-30T01:21:23.158Z,8.23
2018-09-30T01:22:23.120Z,8.36
2018-09-30T01:23:23.098Z,8.44
2018-09-30T01:24:23.076Z,8.46
2018-09-30T01:25:23.059Z,8.52
2018-09-30T01:26:23.031Z,8.61
2018-09-30T01:27:23.014Z,8.72
2018-09-30T01:28:22.991Z,8.87
2018-09-30T01:29:22.975Z,8.87
2018-09-30T01:30:22.947Z,8.82
2018-09-30T01:31:23.014Z,8.75
2018-09-30T01:32:22.901Z,8.75
2018-09-30T01:33:22.879Z,8.78
2018-09-30T01:34:22.858Z,8.72
2018-09-30T01:35:22.857Z,8.78
2018-09-30T01:36:22.815Z,8.86
2018-09-30T01:37:22.801Z,8.75
2018-09-30T01:38:22.772Z,8.79
2018-09-30T01:39:22.756Z,8.92
2018-09-30T01:40:22.734Z,8.97
2018-09-30T01:41:22.704Z,9.03
2018-09-30T01:42:22.683Z,9.08
2018-09-30T01:43:22.658Z,9.02
2018-09-30T01:44:22.637Z,8.96
2018-09-30T01:45:22.628Z,8.89
2018-09-30T01:46:22.594Z,8.86
2018-09-30T01:47:22.584Z,8.87
2018-09-30T01:48:22.551Z,8.97
2018-09-30T01:49:22.526Z,8.97
2018-09-30T01:50:22.510Z,8.92
2018-09-30T01:51:22.485Z,8.90
2018-09-30T01:52:22.461Z,8.96
2018-09-30T01:53:22.443Z,8.96
2018-09-30T01:54:22.424Z,8.87
2018-09-30T01:55:22.398Z,8.84
2018-09-30T01:56:22.373Z,8.79
2018-09-30T01:57:22.354Z,8.82
2018-09-30T01:58:22.333Z,8.87
2018-09-30T01:59:22.308Z,8.64
2018-09-30T02:00:22.287Z,8.66
2018-09-30T02:01:22.351Z,8.66
2018-09-30T02:02:22.246Z,8.69
2018-09-30T02:03:22.223Z,8.59
2018-09-30T02:04:22.254Z,8.64
2018-09-30T02:05:22.180Z,8.61
2018-09-30T02:06:22.159Z,8.56
2018-09-30T02:07:22.146Z,8.69
2018-09-30T02:08:22.114Z,8.64
2018-09-30T02:09:22.093Z,8.59
2018-09-30T02:10:22.073Z,8.60
2018-09-30T02:11:22.053Z,8.56
2018-09-30T02:12:22.039Z,8.44
2018-09-30T02:13:22.003Z,8.42
2018-09-30T02:14:21.983Z,8.31
2018-09-30T02:15:21.957Z,8.21
2018-09-30T02:16:21.938Z,8.18
2018-09-30T02:17:21.915Z,8.14
2018-09-30T02:18:21.896Z,8.13
2018-09-30T02:19:21.873Z,8.05
2018-09-30T02:20:21.884Z,8.05
2018-09-30T02:21:21.831Z,7.93
2018-09-30T02:22:21.806Z,7.98
2018-09-30T02:23:21.884Z,7.93
2018-09-30T02:24:21.762Z,7.88
2018-09-30T02:25:21.748Z,7.80
2018-09-30T02:26:21.727Z,7.87
2018-09-30T02:27:21.698Z,7.72
2018-09-30T02:28:21.675Z,7.81
2018-09-30T02:29:21.657Z,7.77
2018-09-30T02:30:21.634Z,7.80
2018-09-30T02:31:21.695Z,7.78
2018-09-30T02:32:21.585Z,7.84
2018-09-30T02:33:21.575Z,7.78
2018-09-30T02:34:21.541Z,7.67
2018-09-30T02:35:21.531Z,7.72
2018-09-30T02:36:21.495Z,7.74
2018-09-30T02:37:21.476Z,7.64
2018-09-30T02:38:21.462Z,7.69
2018-09-30T02:39:21.433Z,7.64
2018-09-30T02:40:21.410Z,7.70
2018-09-30T02:41:21.387Z,7.70
2018-09-30T02:42:21.365Z,7.85
2018-09-30T02:43:21.348Z,7.80
2018-09-30T02:44:21.329Z,7.80
2018-09-30T02:45:21.299Z,7.70
2018-09-30T02:46:21.280Z,7.74
2018-09-30T02:47:21.255Z,7.84
2018-09-30T02:48:21.233Z,7.74
2018-09-30T02:49:21.219Z,7.77
2018-09-30T02:50:21.190Z,7.78
2018-09-30T02:51:21.169Z,7.78
2018-09-30T02:52:21.142Z,7.75
2018-09-30T02:53:21.237Z,7.78
2018-09-30T02:54:21.107Z,7.70
2018-09-30T02:55:21.080Z,7.70
2018-09-30T02:56:21.175Z,7.64
2018-09-30T02:57:21.036Z,7.69
2018-09-30T02:58:21.020Z,7.66
2018-09-30T02:59:20.992Z,7.51
2018-09-30T03:00:20.968Z,7.47
2018-09-30T03:01:20.943Z,7.59
2018-09-30T03:02:20.920Z,7.47
2018-09-30T03:03:20.905Z,7.47
2018-09-30T03:04:20.878Z,7.53
2018-09-30T03:05:20.859Z,7.41
2018-09-30T03:06:20.831Z,7.48
2018-09-30T03:07:20.807Z,7.48
2018-09-30T03:08:20.791Z,7.47
2018-09-30T03:09:20.770Z,7.46
2018-09-30T03:10:20.743Z,7.43
2018-09-30T03:11:20.722Z,7.51
2018-09-30T03:12:20.699Z,7.32
2018-09-30T03:13:20.677Z,7.37
2018-09-30T03:14:20.666Z,7.26
2018-09-30T03:15:20.730Z,7.25
2018-09-30T03:16:20.609Z,7.26
2018-09-30T03:17:20.587Z,7.26
2018-09-30T03:18:20.622Z,7.29
2018-09-30T03:19:20.542Z,7.25
2018-09-30T03:20:20.517Z,7.25
2018-09-30T03:21:20.495Z,7.25
2018-09-30T03:22:20.477Z,7.18
2018-09-30T03:23:20.462Z,7.22
2018-09-30T03:24:20.456Z,7.23
2018-09-30T03:25:20.407Z,7.11
2018-09-30T03:26:20.394Z,7.08
2018-09-30T03:27:20.361Z,6.95
2018-09-30T03:28:20.336Z,7.00
2018-09-30T03:29:20.316Z,6.92
2018-09-30T03:30:20.296Z,6.90
2018-09-30T03:31:20.272Z,6.93
2018-09-30T03:32:20.248Z,6.87
2018-09-30T03:33:20.226Z,6.96
2018-09-30T03:34:20.201Z,7.01
2018-09-30T03:35:20.189Z,6.93
2018-09-30T03:36:20.157Z,6.97
2018-09-30T03:37:20.138Z,7.03
2018-09-30T03:38:20.115Z,7.07
2018-09-30T03:39:20.091Z,7.14
2018-09-30T03:40:20.068Z,7.19
2018-09-30T03:41:20.045Z,7.22
2018-09-30T03:42:20.025Z,7.21
2018-09-30T03:43:20.000Z,7.33
2018-09-30T03:44:19.976Z,7.32
2018-09-30T03:45:19.954Z,7.32
2018-09-30T03:46:19.943Z,7.26
2018-09-30T03:47:19.910Z,7.23
2018-09-30T03:48:19.932Z,7.23
2018-09-30T03:49:19.864Z,7.08
2018-09-30T03:50:19.842Z,7.11
2018-09-30T03:51:19.842Z,7.13
2018-09-30T03:52:19.803Z,7.11
2018-09-30T03:53:19.774Z,7.15
2018-09-30T03:54:19.753Z,7.18
2018-09-30T03:55:19.736Z,7.14
2018-09-30T03:56:19.708Z,7.19
2018-09-30T03:57:19.682Z,7.28
2018-09-30T03:58:19.663Z,7.31
2018-09-30T03:59:19.639Z,7.26
2018-09-30T04:00:19.644Z,7.18
2018-09-30T04:01:19.592Z,7.26
2018-09-30T04:02:19.574Z,7.25
2018-09-30T04:03:19.556Z,7.21
2018-09-30T04:04:19.533Z,7.23
2018-09-30T04:05:19.543Z,7.23
2018-09-30T04:06:19.490Z,7.18
2018-09-30T04:07:19.463Z,7.21
2018-09-30T04:08:19.436Z,7.25
2018-09-30T04:09:19.412Z,7.25
2018-09-30T04:10:19.393Z,7.28
2018-09-30T04:11:19.369Z,7.29
2018-09-30T04:12:19.349Z,7.25
2018-09-30T04:13:19.326Z,7.25
2018-09-30T04:14:19.302Z,7.25
2018-09-30T04:15:19.276Z,7.08
2018-09-30T04:16:19.256Z,7.15
2018-09-30T04:17:19.252Z,7.11
2018-09-30T04:18:19.214Z,7.04
2018-09-30T04:19:19.208Z,7.03
2018-09-30T04:20:19.173Z,6.96
2018-09-30T04:21:19.146Z,7.04
2018-09-30T04:22:19.136Z,6.95
2018-09-30T04:23:19.109Z,6.89
2018-09-30T04:24:19.096Z,6.89
2018-09-30T04:25:19.052Z,6.80
2018-09-30T04:26:19.031Z,6.82
2018-09-30T04:27:19.005Z,6.89
2018-09-30T04:28:18.980Z,6.87
2018-09-30T04:29:18.963Z,6.89
2018-09-30T04:30:18.936Z,6.97
2018-09-30T04:31:18.915Z,6.87
2018-09-30T04:32:18.891Z,7.00
2018-09-30T04:33:18.965Z,7.00
2018-09-30T04:34:18.845Z,6.92
2018-09-30T04:35:18.823Z,6.95
2018-09-30T04:36:18.800Z,6.93
2018-09-30T04:37:18.778Z,6.95
2018-09-30T04:38:18.755Z,6.90
2018-09-30T04:39:18.732Z,6.83
2018-09-30T04:40:18.721Z,6.77
2018-09-30T04:41:18.691Z,6.75
2018-09-30T04:42:18.665Z,6.75
2018-09-30T04:43:18.751Z,6.72
2018-09-30T04:44:18.619Z,6.67
2018-09-30T04:45:18.595Z,6.67
2018-09-30T04:46:18.580Z,6.64
2018-09-30T04:47:18.549Z,6.68
2018-09-30T04:48:18.529Z,6.68
2018-09-30T04:49:18.509Z,6.70
2018-09-30T04:50:18.482Z,6.67
2018-09-30T04:51:18.464Z,6.67
2018-09-30T04:52:18.437Z,6.65
2018-09-30T04:53:18.413Z,6.67
2018-09-30T04:54:18.394Z,6.56
2018-09-30T04:55:18.368Z,6.57
2018-09-30T04:56:18.350Z,6.62
2018-09-30T04:57:18.322Z,6.54
2018-09-30T04:58:18.299Z,6.65
2018-09-30T04:59:18.276Z,6.62
2018-09-30T05:00:18.302Z,6.56
2018-09-30T05:01:18.229Z,6.38
2018-09-30T05:02:18.217Z,6.38
2018-09-30T05:03:18.183Z,6.46
2018-09-30T05:04:18.159Z,6.39
2018-09-30T05:05:18.138Z,6.49
2018-09-30T05:06:18.122Z,6.36
2018-09-30T05:07:18.093Z,6.34
2018-09-30T05:08:18.074Z,6.29
2018-09-30T05:09:18.046Z,6.28
2018-09-30T05:10:18.032Z,6.29
2018-09-30T05:11:17.998Z,6.26
2018-09-30T05:12:17.977Z,6.38
2018-09-30T05:13:17.951Z,6.50
2018-09-30T05:14:17.929Z,6.52
2018-09-30T05:15:17.910Z,6.44
2018-09-30T05:16:17.897Z,6.47
2018-09-30T05:17:17.867Z,6.49
2018-09-30T05:18:17.841Z,6.38
2018-09-30T05:19:17.893Z,6.39
2018-09-30T05:20:17.789Z,6.36
2018-09-30T05:21:17.769Z,6.50
2018-09-30T05:22:17.771Z,6.49
2018-09-30T05:23:17.721Z,6.39
2018-09-30T05:24:17.698Z,6.44
2018-09-30T05:25:17.680Z,6.50
2018-09-30T05:26:17.662Z,6.44
2018-09-30T05:27:17.628Z,6.52
2018-09-30T05:28:17.604Z,6.28
2018-09-30T05:29:17.587Z,6.34
2018-09-30T05:30:17.560Z,6.35
2018-09-30T05:31:17.607Z,6.38
2018-09-30T05:32:17.515Z,6.44
2018-09-30T05:33:17.491Z,6.46
2018-09-30T05:34:17.471Z,6.49
2018-09-30T05:35:17.446Z,6.49
2018-09-30T05:36:17.420Z,6.44
2018-09-30T05:37:17.467Z,6.46
2018-09-30T05:38:17.376Z,6.52
2018-09-30T05:39:17.351Z,6.64
2018-09-30T05:40:17.328Z,6.59
2018-09-30T05:41:17.428Z,6.70
2018-09-30T05:42:17.280Z,6.67
2018-09-30T05:43:17.260Z,6.71
2018-09-30T05:44:17.272Z,6.67
2018-09-30T05:45:17.219Z,6.72
2018-09-30T05:46:17.191Z,6.68
2018-09-30T05:47:17.168Z,6.62
2018-09-30T05:48:17.146Z,6.72
2018-09-30T05:49:17.205Z,6.64
2018-09-30T05:50:17.098Z,6.70
2018-09-30T05:51:17.075Z,6.67
2018-09-30T05:52:17.050Z,6.68
2018-09-30T05:53:17.042Z,6.67
2018-09-30T05:54:17.005Z,6.67
2018-09-30T05:55:16.992Z,6.62
2018-09-30T05:56:16.957Z,6.71
2018-09-30T05:57:16.938Z,6.72
2018-09-30T05:58:16.913Z,6.71
2018-09-30T05:59:16.893Z,6.80
2018-09-30T06:00:16.866Z,6.87
2018-09-30T06:01:16.843Z,6.86
2018-09-30T06:02:16.824Z,6.83
2018-09-30T06:03:16.799Z,6.86
2018-09-30T06:04:16.773Z,6.86
2018-09-30T06:05:16.757Z,6.87
2018-09-30T06:06:16.727Z,6.87
2018-09-30T06:07:16.706Z,6.89
2018-09-30T06:08:16.722Z,6.96
2018-09-30T06:09:16.716Z,6.95
2018-09-30T06:10:16.635Z,6.95
2018-09-30T06:11:16.683Z,6.93
2018-09-30T06:12:16.600Z,6.95
2018-09-30T06:13:16.565Z,6.96
2018-09-30T06:14:16.722Z,6.90
2018-09-30T06:15:16.523Z,6.93
2018-09-30T06:16:16.503Z,7.00
2018-09-30T06:17:16.474Z,6.96
2018-09-30T06:18:16.461Z,6.95
2018-09-30T06:19:16.433Z,6.97
2018-09-30T06:20:16.404Z,6.97
2018-09-30T06:21:16.383Z,7.00
2018-09-30T06:22:16.359Z,7.01
2018-09-30T06:23:16.342Z,7.04
2018-09-30T06:24:16.381Z,7.07
2018-09-30T06:25:16.299Z,6.96
2018-09-30T06:26:16.272Z,7.01
2018-09-30T06:27:16.247Z,7.00
2018-09-30T06:28:16.221Z,7.11
2018-09-30T06:29:16.204Z,7.14
2018-09-30T06:30:16.176Z,7.18
2018-09-30T06:31:16.157Z,7.19
2018-09-30T06:32:16.139Z,7.22
2018-09-30T06:33:16.106Z,7.26
2018-09-30T06:34:16.086Z,7.22
2018-09-30T06:35:16.062Z,7.25
2018-09-30T06:36:16.120Z,7.28
2018-09-30T06:37:16.041Z,7.37
2018-09-30T06:38:16.001Z,7.32
2018-09-30T06:39:15.984Z,7.31
2018-09-30T06:40:15.973Z,7.44
2018-09-30T06:41:15.925Z,7.41
2018-09-30T06:42:15.907Z,7.41
2018-09-30T06:43:15.880Z,7.53
2018-09-30T06:44:15.960Z,7.46
2018-09-30T06:45:15.868Z,7.64
2018-09-30T06:46:15.813Z,7.64
2018-09-30T06:47:15.793Z,7.74
2018-09-30T06:48:15.770Z,7.67
2018-09-30T06:49:15.768Z,7.74
2018-09-30T06:50:15.724Z,7.67
2018-09-30T06:51:15.700Z,7.66
2018-09-30T06:52:15.688Z,7.64
2018-09-30T06:53:15.653Z,7.66
2018-09-30T06:54:15.629Z,7.66
2018-09-30T06:55:15.610Z,7.72
2018-09-30T06:56:15.589Z,7.78
2018-09-30T06:57:15.564Z,7.78
2018-09-30T06:58:15.539Z,7.91
2018-09-30T06:59:15.519Z,7.90
2018-09-30T07:00:15.502Z,7.95
2018-09-30T07:01:15.473Z,7.87
2018-09-30T07:02:15.453Z,7.93
2018-09-30T07:03:15.547Z,7.91
2018-09-30T07:04:15.405Z,7.93
2018-09-30T07:05:15.382Z,7.95
2018-09-30T07:06:15.371Z,7.96
2018-09-30T07:07:15.336Z,7.93
2018-09-30T07:08:15.316Z,7.88
2018-09-30T07:09:15.292Z,7.87
2018-09-30T07:10:15.285Z,7.95
2018-09-30T07:11:15.248Z,7.99
2018-09-30T07:12:15.234Z,8.26
2018-09-30T07:13:15.203Z,8.41
2018-09-30T07:14:15.180Z,8.44
2018-09-30T07:15:15.158Z,8.57
2018-09-30T07:16:15.151Z,8.68
2018-09-30T07:17:15.122Z,8.68
2018-09-30T07:18:15.099Z,8.64
2018-09-30T07:19:15.081Z,8.71
2018-09-30T07:20:15.046Z,8.86
2018-09-30T07:21:15.023Z,8.75
2018-09-30T07:22:15.020Z,8.86
2018-09-30T07:23:14.984Z,8.81
2018-09-30T07:24:14.957Z,8.89
2018-09-30T07:25:14.941Z,8.95
2018-09-30T07:26:14.912Z,9.08
2018-09-30T07:27:14.902Z,8.97
2018-09-30T07:28:14.977Z,9.00
2018-09-30T07:29:14.848Z,9.02
2018-09-30T07:30:14.832Z,9.08
2018-09-30T07:31:14.803Z,9.05
2018-09-30T07:32:14.779Z,9.12
2018-09-30T07:33:14.756Z,9.11
2018-09-30T07:34:14.736Z,9.16
2018-09-30T07:35:14.724Z,9.24
2018-09-30T07:36:14.699Z,9.21
2018-09-30T07:37:14.675Z,9.22
2018-09-30T07:38:14.651Z,9.19
2018-09-30T07:39:14.656Z,9.24
2018-09-30T07:40:14.604Z,9.24
2018-09-30T07:41:14.589Z,9.33
2018-09-30T07:42:14.558Z,9.37
2018-09-30T07:43:14.556Z,9.30
2018-09-30T07:44:14.513Z,9.31
2018-09-30T07:45:14.494Z,9.29
2018-09-30T07:46:14.471Z,9.44
2018-09-30T07:47:14.457Z,9.39
2018-09-30T07:48:14.427Z,9.48
2018-09-30T07:49:14.412Z,9.63
2018-09-30T07:50:14.385Z,9.59
2018-09-30T07:51:14.365Z,9.69
2018-09-30T07:52:14.340Z,9.74
2018-09-30T07:53:14.322Z,9.84
2018-09-30T07:54:14.298Z,9.81
2018-09-30T07:55:14.274Z,9.81
2018-09-30T07:56:14.254Z,9.81
2018-09-30T07:57:14.234Z,9.84
2018-09-30T07:58:14.215Z,9.91
2018-09-30T07:59:14.190Z,9.90
2018-09-30T08:00:14.166Z,9.92
2018-09-30T08:01:14.155Z,9.95
2018-09-30T08:02:14.125Z,10.00
2018-09-30T08:03:14.112Z,10.05
2018-09-30T08:04:14.086Z,10.07
2018-09-30T08:05:14.067Z,10.17
2018-09-30T08:06:14.057Z,10.13
2018-09-30T08:07:14.015Z,10.27
2018-09-30T08:08:13.994Z,10.33
2018-09-30T08:09:13.973Z,10.43
2018-09-30T08:10:13.959Z,10.51
2018-09-30T08:11:13.928Z,10.45
2018-09-30T08:12:13.922Z,10.51
2018-09-30T08:13:13.897Z,10.49
2018-09-30T08:14:13.865Z,10.49
2018-09-30T08:15:13.853Z,10.57
2018-09-30T08:16:13.823Z,10.59
2018-09-30T08:17:13.802Z,10.72
2018-09-30T08:18:13.784Z,10.79
2018-09-30T08:19:13.765Z,10.90
2018-09-30T08:20:13.812Z,10.87
2018-09-30T08:21:13.725Z,11.01
2018-09-30T08:22:13.697Z,11.10
2018-09-30T08:23:13.679Z,11.15
2018-09-30T08:24:13.816Z,11.27
2018-09-30T08:25:13.642Z,11.30
2018-09-30T08:26:13.615Z,11.38
2018-09-30T08:27:13.595Z,11.43
2018-09-30T08:28:13.681Z,11.44
2018-09-30T08:29:13.564Z,11.49
2018-09-30T08:30:13.554Z,11.56
2018-09-30T08:31:13.524Z,11.68
2018-09-30T08:32:13.502Z,11.78
2018-09-30T08:33:13.466Z,11.73
2018-09-30T08:34:13.461Z,11.89
2018-09-30T08:35:13.428Z,12.00
2018-09-30T08:36:13.414Z,12.08
2018-09-30T08:37:13.396Z,12.20
2018-09-30T08:38:13.372Z,12.43
2018-09-30T08:39:13.339Z,12.54
2018-09-30T08:40:13.327Z,12.62
2018-09-30T08:41:13.302Z,12.93
2018-09-30T08:42:13.282Z,13.05
2018-09-30T08:43:13.261Z,13.12
2018-09-30T08:44:13.295Z,13.45
2018-09-30T08:45:13.219Z,13.80
2018-09-30T08:46:13.206Z,13.98
2018-09-30T08:47:13.212Z,13.98
2018-09-30T08:48:13.156Z,14.03
2018-09-30T08:49:13.150Z,14.04
2018-09-30T08:50:13.118Z,14.20
2018-09-30T08:51:13.118Z,14.04
2018-09-30T08:52:13.091Z,14.49
2018-09-30T08:53:13.075Z,14.70
2018-09-30T08:54:13.047Z,14.99
2018-09-30T08:55:13.033Z,15.27
2018-09-30T08:56:13.141Z,15.43
2018-09-30T08:57:12.977Z,15.33
2018-09-30T08:58:12.968Z,15.10
2018-09-30T08:59:12.943Z,14.99
2018-09-30T09:00:12.929Z,15.05
2018-09-30T09:01:12.921Z,15.30
2018-09-30T09:02:12.884Z,15.39
2018-09-30T09:03:12.996Z,15.60
2018-09-30T09:04:12.856Z,16.00
2018-09-30T09:05:12.837Z,16.28
2018-09-30T09:06:12.817Z,16.21
2018-09-30T09:07:12.797Z,16.46
2018-09-30T09:08:12.770Z,16.83
2018-09-30T09:09:12.759Z,17.17
2018-09-30T09:10:12.743Z,17.38
2018-09-30T09:11:12.717Z,17.47
2018-09-30T09:12:12.698Z,17.47
2018-09-30T09:13:12.692Z,17.46
2018-09-30T09:14:12.665Z,17.37
2018-09-30T09:15:12.650Z,17.04
2018-09-30T09:16:12.632Z,16.40
2018-09-30T09:17:12.632Z,15.99
2018-09-30T09:18:12.599Z,15.98
2018-09-30T09:19:12.582Z,16.00
2018-09-30T09:20:12.570Z,16.02
2018-09-30T09:21:12.551Z,16.02
2018-09-30T09:22:12.579Z,15.99
2018-09-30T09:23:12.528Z,15.99
2018-09-30T09:24:12.510Z,15.90
2018-09-30T09:25:12.496Z,15.90
2018-09-30T09:26:12.480Z,16.02
2018-09-30T09:27:12.464Z,16.28
2018-09-30T09:28:12.477Z,16.51
2018-09-30T09:29:12.430Z,16.54
2018-09-30T09:30:12.429Z,16.41
2018-09-30T09:31:12.414Z,16.49
2018-09-30T09:32:12.408Z,16.61
2018-09-30T09:33:12.381Z,16.72
2018-09-30T09:34:12.353Z,16.65
2018-09-30T09:35:12.440Z,16.84
2018-09-30T09:36:12.323Z,17.30
2018-09-30T09:37:12.319Z,17.79
2018-09-30T09:38:12.287Z,18.42
2018-09-30T09:39:12.437Z,19.07
2018-09-30T09:40:12.283Z,19.74
2018-09-30T09:41:12.241Z,20.30
2018-09-30T09:42:12.252Z,20.63
2018-09-30T09:43:12.230Z,20.75
2018-09-30T09:44:12.207Z,20.21
2018-09-30T09:45:12.192Z,19.77
2018-09-30T09:46:12.176Z,19.47
2018-09-30T09:47:12.301Z,20.14
2018-09-30T09:48:12.154Z,20.74
2018-09-30T09:49:12.134Z,20.86
2018-09-30T09:50:12.130Z,20.21
2018-09-30T09:51:12.109Z,19.72
2018-09-30T09:52:12.097Z,19.75
2018-09-30T09:53:12.107Z,20.53
2018-09-30T09:54:12.098Z,20.96
2018-09-30T09:55:12.061Z,20.98
2018-09-30T09:56:12.053Z,21.33
2018-09-30T09:57:12.049Z,21.38
2018-09-30T09:58:12.039Z,20.78
2018-09-30T09:59:12.146Z,21.01
2018-09-30T10:00:12.004Z,21.38
2018-09-30T10:01:12.000Z,21.60
2018-09-30T10:02:11.990Z,21.94
2018-09-30T10:03:12.013Z,22.36
2018-09-30T10:04:11.965Z,22.55
2018-09-30T10:05:12.035Z,22.34
2018-09-30T10:06:11.993Z,21.58
2018-09-30T10:07:11.933Z,21.11
2018-09-30T10:08:12.011Z,20.95
2018-09-30T10:09:11.942Z,21.54
2018-09-30T10:10:11.911Z,21.97
2018-09-30T10:11:11.904Z,22.49
2018-09-30T10:12:11.890Z,22.26
2018-09-30T10:13:11.924Z,21.66
2018-09-30T10:14:11.872Z,20.95
2018-09-30T10:15:11.858Z,21.44
2018-09-30T10:16:11.849Z,21.53
2018-09-30T10:17:11.847Z,21.47
2018-09-30T10:18:11.834Z,21.72
2018-09-30T10:19:11.824Z,21.99
2018-09-30T10:20:11.943Z,21.84
2018-09-30T10:21:11.814Z,21.38
2018-09-30T10:22:11.873Z,20.92
2018-09-30T10:23:11.786Z,20.95
2018-09-30T10:24:11.777Z,20.88
2018-09-30T10:25:11.876Z,20.96
2018-09-30T10:26:11.758Z,21.13
2018-09-30T10:27:11.754Z,21.60
2018-09-30T10:28:11.738Z,21.68
2018-09-30T10:29:11.730Z,21.96
2018-09-30T10:30:11.722Z,22.00
2018-09-30T10:31:11.717Z,22.37
2018-09-30T10:32:11.710Z,22.76
2018-09-30T10:33:11.694Z,23.11
2018-09-30T10:34:11.685Z,23.16
2018-09-30T10:35:11.790Z,23.04
2018-09-30T10:36:11.669Z,23.16
2018-09-30T10:37:11.672Z,23.69
2018-09-30T10:38:11.811Z,23.71
2018-09-30T10:39:11.729Z,23.89
2018-09-30T10:40:11.664Z,23.33
2018-09-30T10:41:11.633Z,23.48
2018-09-30T10:42:11.618Z,23.20
2018-09-30T10:43:11.618Z,23.02
2018-09-30T10:44:11.602Z,23.04
2018-09-30T10:45:11.609Z,22.91
2018-09-30T10:46:11.584Z,22.91
2018-09-30T10:47:11.583Z,23.01
2018-09-30T10:48:11.593Z,23.39
2018-09-30T10:49:11.556Z,23.56
2018-09-30T10:50:11.553Z,23.77
2018-09-30T10:51:11.558Z,23.91
2018-09-30T10:52:11.548Z,23.62
2018-09-30T10:53:11.526Z,23.73
2018-09-30T10:54:11.514Z,23.85
2018-09-30T10:55:11.541Z,23.91
2018-09-30T10:56:11.494Z,23.85
2018-09-30T10:57:11.484Z,23.66
2018-09-30T10:58:11.474Z,23.40
2018-09-30T10:59:11.465Z,23.29
2018-09-30T11:00:11.458Z,23.07
2018-09-30T11:01:11.458Z,22.78
2018-09-30T11:02:11.490Z,22.93
2018-09-30T11:03:11.446Z,22.81
2018-09-30T11:04:11.430Z,22.96
2018-09-30T11:05:11.422Z,22.81
2018-09-30T11:06:11.404Z,23.02
2018-09-30T11:07:11.412Z,23.18
2018-09-30T11:08:11.393Z,23.42
2018-09-30T11:09:11.385Z,23.69
2018-09-30T11:10:11.447Z,23.86
2018-09-30T11:11:11.367Z,24.19
2018-09-30T11:12:11.400Z,24.43
2018-09-30T11:13:11.353Z,24.26
2018-09-30T11:14:11.334Z,24.09
2018-09-30T11:15:11.325Z,23.84
2018-09-30T11:16:11.379Z,23.64
2018-09-30T11:17:11.312Z,23.51
2018-09-30T11:18:11.323Z,23.37
2018-09-30T11:19:11.294Z,23.37
2018-09-30T11:20:11.279Z,23.32
2018-09-30T11:21:11.280Z,23.48
2018-09-30T11:22:11.274Z,23.63
2018-09-30T11:23:11.273Z,23.88
2018-09-30T11:24:11.245Z,23.84
2018-09-30T11:25:11.264Z,24.16
2018-09-30T11:26:11.231Z,24.31
2018-09-30T11:27:11.215Z,24.16
2018-09-30T11:28:11.216Z,24.09
2018-09-30T11:29:11.204Z,24.10
2018-09-30T11:30:11.192Z,24.07
2018-09-30T11:31:11.191Z,23.71
2018-09-30T11:32:11.171Z,23.33
2018-09-30T11:33:11.162Z,22.91
2018-09-30T11:34:11.149Z,23.13
2018-09-30T11:35:11.140Z,23.26
2018-09-30T11:36:11.122Z,23.18
2018-09-30T11:37:11.117Z,23.07
2018-09-30T11:38:11.104Z,23.02
2018-09-30T11:39:11.105Z,23.52
2018-09-30T11:40:11.093Z,23.51
2018-09-30T11:41:11.074Z,23.36
2018-09-30T11:42:11.064Z,23.54
2018-09-30T11:43:11.052Z,23.63
2018-09-30T11:44:11.044Z,23.48
2018-09-30T11:45:11.043Z,23.37
2018-09-30T11:46:11.020Z,23.39
2018-09-30T11:47:11.030Z,23.25
2018-09-30T11:48:11.003Z,23.28
2018-09-30T11:49:10.990Z,23.36
2018-09-30T11:50:10.990Z,23.62
2018-09-30T11:51:10.980Z,23.56
2018-09-30T11:52:11.128Z,23.04
2018-09-30T11:53:10.960Z,22.68
2018-09-30T11:54:10.945Z,22.67
2018-09-30T11:55:10.940Z,21.85
2018-09-30T11:56:10.908Z,21.17
2018-09-30T11:57:10.899Z,20.80
2018-09-30T11:58:10.942Z,21.23
2018-09-30T11:59:10.888Z,21.47
2018-09-30T12:00:10.868Z,21.63
2018-09-30T12:01:10.889Z,21.15
2018-09-30T12:02:10.918Z,21.37
2018-09-30T12:03:10.826Z,21.75
2018-09-30T12:04:10.821Z,22.26
2018-09-30T12:05:10.814Z,22.41
2018-09-30T12:06:10.804Z,22.33
2018-09-30T12:07:10.779Z,22.51
2018-09-30T12:08:10.813Z,22.71
2018-09-30T12:09:10.766Z,22.98
2018-09-30T12:10:10.760Z,22.92
2018-09-30T12:11:10.748Z,22.91
2018-09-30T12:12:10.716Z,22.58
2018-09-30T12:13:13.331Z,22.15
2018-09-30T12:14:10.745Z,21.54
2018-09-30T12:15:10.695Z,20.95
2018-09-30T12:16:10.661Z,20.59
2018-09-30T12:17:10.657Z,20.56
2018-09-30T12:18:10.644Z,20.37
2018-09-30T12:19:10.623Z,20.33
2018-09-30T12:20:10.614Z,20.00
2018-09-30T12:21:10.596Z,19.93
2018-09-30T12:22:10.596Z,20.03
2018-09-30T12:23:10.572Z,19.99
2018-09-30T12:24:10.560Z,20.03
2018-09-30T12:25:10.542Z,20.07
2018-09-30T12:26:10.538Z,19.94
2018-09-30T12:27:10.513Z,19.94
2018-09-30T12:28:10.504Z,19.96
2018-09-30T12:29:10.501Z,20.14
2018-09-30T12:30:10.483Z,19.94
2018-09-30T12:31:10.462Z,19.84
2018-09-30T12:32:10.450Z,19.53
2018-09-30T12:33:10.443Z,19.49
2018-09-30T12:34:10.430Z,19.62
2018-09-30T12:35:10.605Z,19.60
2018-09-30T12:36:10.390Z,19.67
2018-09-30T12:37:10.381Z,19.77
2018-09-30T12:38:10.417Z,19.79
2018-09-30T12:39:10.373Z,19.94
2018-09-30T12:40:10.349Z,20.07
2018-09-30T12:41:10.336Z,20.04
2018-09-30T12:42:10.311Z,19.96
2018-09-30T12:43:10.294Z,20.00
2018-09-30T12:44:10.279Z,19.82
2018-09-30T12:45:10.267Z,19.63
2018-09-30T12:46:10.252Z,19.77
2018-09-30T12:47:10.236Z,20.03
2018-09-30T12:48:10.222Z,20.17
2018-09-30T12:49:10.215Z,20.33
2018-09-30T12:50:10.202Z,20.46
2018-09-30T12:51:10.194Z,20.36
2018-09-30T12:52:10.165Z,20.50
2018-09-30T12:53:10.154Z,20.39
2018-09-30T12:54:10.136Z,20.29
2018-09-30T12:55:10.140Z,20.14
2018-09-30T12:56:10.138Z,20.30
2018-09-30T12:57:10.126Z,20.37
2018-09-30T12:58:10.228Z,20.75
2018-09-30T12:59:10.071Z,20.88
2018-09-30T13:00:10.091Z,20.96
2018-09-30T13:01:10.046Z,20.56
2018-09-30T13:02:10.028Z,20.36
2018-09-30T13:03:10.015Z,20.40
2018-09-30T13:04:09.998Z,20.33
2018-09-30T13:05:09.991Z,20.15
2018-09-30T13:06:09.982Z,20.18
2018-09-30T13:07:09.959Z,20.08
2018-09-30T13:08:09.944Z,19.96